createdAt,value
2022-10-05T00:00:17.092Z,962.09
2022-10-05T00:01:19.118Z,962.08
2022-10-05T00:02:21.139Z,962.14
2022-10-05T00:03:23.063Z,962.1
2022-10-05T00:04:25.106Z,962.12
2022-10-05T00:05:27.170Z,962.14
2022-10-05T00:06:29.059Z,962.12
2022-10-05T00:07:31.101Z,962.1
2022-10-05T00:08:33.058Z,962.09
2022-10-05T00:09:35.096Z,962.07
2022-10-05T00:10:37.070Z,962.09
2022-10-05T00:11:39.038Z,962.06
2022-10-05T00:12:42.074Z,962.03
2022-10-05T00:16:03.854Z,962.02
2022-10-05T00:16:04.328Z,962.02
2022-10-05T00:17:05.591Z,961.97
2022-10-05T00:18:07.570Z,961.97
2022-10-05T00:19:09.560Z,961.94
2022-10-05T00:20:11.566Z,961.94
2022-10-05T00:21:13.563Z,961.91
2022-10-05T00:22:16.579Z,961.96
2022-10-05T00:23:18.556Z,961.98
2022-10-05T00:24:20.556Z,961.96
2022-10-05T00:25:22.557Z,961.97
2022-10-05T00:26:24.563Z,961.93
2022-10-05T00:27:26.774Z,961.95
2022-10-05T00:28:28.681Z,961.95
2022-10-05T00:29:30.565Z,961.97
2022-10-05T00:30:32.592Z,961.94
2022-10-05T00:31:34.597Z,961.95
2022-10-05T00:32:36.566Z,961.95
2022-10-05T00:33:38.654Z,961.95
2022-10-05T00:34:41.587Z,962
2022-10-05T00:35:44.796Z,961.98
2022-10-05T00:36:46.930Z,961.96
2022-10-05T00:37:48.572Z,961.94
2022-10-05T00:38:50.567Z,961.94
2022-10-05T00:39:52.571Z,961.93
2022-10-05T00:40:54.621Z,961.95
2022-10-05T00:41:56.573Z,961.95
2022-10-05T00:42:58.575Z,961.97
2022-10-05T00:44:15.087Z,961.95
2022-10-05T00:45:02.591Z,961.94
2022-10-05T00:46:04.848Z,961.94
2022-10-05T00:47:06.576Z,961.93
2022-10-05T00:48:08.596Z,961.91
2022-10-05T00:49:10.575Z,961.93
2022-10-05T00:50:12.581Z,961.94
2022-10-05T00:51:14.590Z,961.97
2022-10-05T00:52:16.586Z,961.94
2022-10-05T00:53:19.592Z,961.95
2022-10-05T00:54:21.577Z,961.94
2022-10-05T00:55:23.781Z,961.93
2022-10-05T00:56:25.584Z,962
2022-10-05T00:57:27.591Z,962.02
2022-10-05T00:58:34.402Z,962.02
2022-10-05T00:59:31.594Z,962.04
2022-10-05T01:00:33.612Z,962.01
2022-10-05T01:01:35.656Z,962
2022-10-05T01:02:37.697Z,962
2022-10-05T01:03:39.590Z,961.99
2022-10-05T01:04:41.605Z,962
2022-10-05T01:05:44.584Z,961.98
2022-10-05T01:06:46.870Z,962
2022-10-05T01:07:48.583Z,961.99
2022-10-05T01:08:50.595Z,961.98
2022-10-05T01:09:52.597Z,961.96
2022-10-05T01:10:54.588Z,961.98
2022-10-05T01:11:56.592Z,961.98
2022-10-05T01:12:58.599Z,961.94
2022-10-05T01:14:01.118Z,961.94
2022-10-05T01:15:02.596Z,961.94
2022-10-05T01:16:04.610Z,961.92
2022-10-05T01:17:06.598Z,961.92
2022-10-05T01:18:08.598Z,961.94
2022-10-05T01:19:10.604Z,961.93
2022-10-05T01:20:12.604Z,961.96
2022-10-05T01:21:14.602Z,961.98
2022-10-05T01:22:16.606Z,962
2022-10-05T01:23:18.593Z,961.98
2022-10-05T01:24:20.610Z,961.94
2022-10-05T01:25:22.673Z,961.95
2022-10-05T01:26:24.604Z,961.88
2022-10-05T01:28:38.070Z,961.85
2022-10-05T01:29:39.982Z,961.87
2022-10-05T01:30:41.998Z,961.82
2022-10-05T01:31:46.055Z,961.83
2022-10-05T01:32:47.991Z,961.84
2022-10-05T01:33:49.994Z,961.87
2022-10-05T01:34:51.997Z,961.86
2022-10-05T01:35:53.980Z,961.89
2022-10-05T01:36:56.010Z,961.88
2022-10-05T01:37:57.989Z,961.89
2022-10-05T01:39:00.060Z,961.88
2022-10-05T01:40:02.029Z,961.88
2022-10-05T01:41:03.997Z,961.84
2022-10-05T01:42:06.007Z,961.8
2022-10-05T01:43:07.992Z,961.82
2022-10-05T01:44:09.992Z,961.83
2022-10-05T01:45:12.014Z,961.84
2022-10-05T01:46:36.719Z,961.83
2022-10-05T01:47:36.777Z,961.82
2022-10-05T01:48:36.726Z,961.8
2022-10-05T01:49:36.713Z,961.82
2022-10-05T01:50:36.939Z,961.74
2022-10-05T01:51:36.720Z,961.76
2022-10-05T01:52:36.714Z,961.75
2022-10-05T01:53:36.723Z,961.74
2022-10-05T01:54:36.777Z,961.69
2022-10-05T01:55:36.747Z,961.69
2022-10-05T01:56:36.711Z,961.67
2022-10-05T01:57:36.724Z,961.65
2022-10-05T01:58:38.017Z,961.62
2022-10-05T01:59:40.018Z,961.59
2022-10-05T02:00:42.094Z,961.62
2022-10-05T02:01:46.090Z,961.6
2022-10-05T02:02:48.016Z,961.61
2022-10-05T02:03:50.032Z,961.61
2022-10-05T02:05:01.894Z,961.62
2022-10-05T02:05:54.011Z,961.6
2022-10-05T02:06:56.016Z,961.66
2022-10-05T02:07:58.007Z,961.66
2022-10-05T02:09:01.608Z,961.71
2022-10-05T02:10:02.015Z,961.74
2022-10-05T02:11:04.012Z,961.73
2022-10-05T02:12:06.007Z,961.7
2022-10-05T02:13:08.016Z,961.71
2022-10-05T02:14:10.040Z,961.75
2022-10-05T02:15:12.032Z,961.73
2022-10-05T02:16:14.196Z,961.76
2022-10-05T02:17:16.019Z,961.75
2022-10-05T02:18:18.015Z,961.7
2022-10-05T02:19:20.060Z,961.74
2022-10-05T02:20:22.023Z,961.72
2022-10-05T02:21:25.026Z,961.71
2022-10-05T02:22:27.032Z,961.7
2022-10-05T02:23:29.024Z,961.68
2022-10-05T02:24:32.050Z,961.67
2022-10-05T02:25:34.022Z,961.66
2022-10-05T02:26:36.027Z,961.64
2022-10-05T02:27:38.029Z,961.63
2022-10-05T02:28:40.117Z,961.64
2022-10-05T02:29:46.062Z,961.61
2022-10-05T02:30:48.028Z,961.6
2022-10-05T02:31:50.138Z,961.59
2022-10-05T02:32:52.028Z,961.61
2022-10-05T02:34:36.792Z,961.58
2022-10-05T02:35:36.776Z,961.58
2022-10-05T02:37:00.093Z,961.64
2022-10-05T02:38:02.160Z,961.66
2022-10-05T02:39:36.761Z,961.67
2022-10-05T02:40:36.758Z,961.68
2022-10-05T02:41:36.754Z,961.69
2022-10-05T02:42:36.958Z,961.65
2022-10-05T02:43:36.756Z,961.7
2022-10-05T02:44:36.800Z,961.68
2022-10-05T02:45:36.816Z,961.65
2022-10-05T02:46:36.768Z,961.66
2022-10-05T02:47:36.781Z,961.6
2022-10-05T02:48:36.814Z,961.61
2022-10-05T02:49:36.783Z,961.63
2022-10-05T02:50:36.757Z,961.64
2022-10-05T02:51:36.768Z,961.61
2022-10-05T02:52:36.796Z,961.6
2022-10-05T02:53:36.791Z,961.6
2022-10-05T02:54:36.777Z,961.64
2022-10-05T02:55:36.769Z,961.61
2022-10-05T02:56:38.090Z,961.6
2022-10-05T02:57:40.048Z,961.65
2022-10-05T02:58:42.055Z,961.67
2022-10-05T02:59:44.048Z,961.69
2022-10-05T03:00:46.092Z,961.7
2022-10-05T03:01:48.153Z,961.64
2022-10-05T03:02:50.046Z,961.61
2022-10-05T03:03:52.047Z,961.58
2022-10-05T03:04:54.056Z,961.56
2022-10-05T03:05:56.048Z,961.56
2022-10-05T03:06:58.103Z,961.54
2022-10-05T03:08:00.103Z,961.54
2022-10-05T03:09:02.064Z,961.5
2022-10-05T03:10:04.059Z,961.53
2022-10-05T03:11:06.056Z,961.52
2022-10-05T03:12:08.071Z,961.51
2022-10-05T03:13:10.054Z,961.49
2022-10-05T03:14:12.062Z,961.48
2022-10-05T03:15:14.080Z,961.47
2022-10-05T03:16:16.084Z,961.44
2022-10-05T03:17:18.059Z,961.46
2022-10-05T03:18:20.101Z,961.45
2022-10-05T03:19:22.056Z,961.41
2022-10-05T03:20:25.063Z,961.46
2022-10-05T03:21:27.071Z,961.45
2022-10-05T03:22:30.060Z,961.48
2022-10-05T03:23:32.115Z,961.47
2022-10-05T03:24:34.107Z,961.45
2022-10-05T03:25:36.075Z,961.47
2022-10-05T03:26:38.090Z,961.45
2022-10-05T03:27:40.081Z,961.48
2022-10-05T03:28:42.091Z,961.46
2022-10-05T03:29:46.081Z,961.49
2022-10-05T03:30:48.153Z,961.47
2022-10-05T03:31:50.070Z,961.48
2022-10-05T03:32:52.090Z,961.44
2022-10-05T03:33:54.073Z,961.37
2022-10-05T03:34:56.081Z,961.4
2022-10-05T03:35:58.107Z,961.38
2022-10-05T03:37:00.079Z,961.32
2022-10-05T03:38:02.075Z,961.31
2022-10-05T03:39:04.070Z,961.27
2022-10-05T03:40:06.071Z,961.23
2022-10-05T03:41:09.267Z,961.23
2022-10-05T03:42:11.111Z,961.21
2022-10-05T03:43:13.067Z,961.18
2022-10-05T03:44:15.075Z,961.17
2022-10-05T03:45:17.082Z,961.14
2022-10-05T03:46:19.180Z,961.15
2022-10-05T03:47:21.091Z,961.15
2022-10-05T03:48:23.080Z,961.17
2022-10-05T03:49:25.090Z,961.21
2022-10-05T03:50:27.083Z,961.21
2022-10-05T03:51:29.323Z,961.17
2022-10-05T03:52:31.100Z,961.2
2022-10-05T03:53:33.086Z,961.21
2022-10-05T03:54:35.089Z,961.21
2022-10-05T03:55:37.109Z,961.17
2022-10-05T03:56:39.108Z,961.16
2022-10-05T03:57:42.098Z,961.21
2022-10-05T03:58:45.093Z,961.22
2022-10-05T03:59:47.088Z,961.22
2022-10-05T04:00:49.095Z,961.25
2022-10-05T04:01:51.166Z,961.27
2022-10-05T04:02:53.184Z,961.25
2022-10-05T04:03:55.088Z,961.29
2022-10-05T04:04:57.099Z,961.28
2022-10-05T04:05:59.114Z,961.34
2022-10-05T04:07:01.137Z,961.4
2022-10-05T04:08:03.091Z,961.45
2022-10-05T04:09:05.093Z,961.38
2022-10-05T04:10:07.102Z,961.44
2022-10-05T04:11:10.095Z,961.39
2022-10-05T04:12:12.103Z,961.39
2022-10-05T04:13:15.093Z,961.39
2022-10-05T04:15:20.107Z,961.36
2022-10-05T04:16:22.152Z,961.33
2022-10-05T04:17:24.113Z,961.34
2022-10-05T04:18:26.093Z,961.37
2022-10-05T04:19:28.096Z,961.35
2022-10-05T04:20:30.098Z,961.32
2022-10-05T04:21:32.101Z,961.33
2022-10-05T04:22:34.134Z,961.36
2022-10-05T04:23:36.106Z,961.34
2022-10-05T04:24:38.115Z,961.3
2022-10-05T04:25:40.106Z,961.3
2022-10-05T04:26:42.107Z,961.31
2022-10-05T04:27:44.106Z,961.3
2022-10-05T04:28:46.345Z,961.31
2022-10-05T04:29:48.106Z,961.35
2022-10-05T04:30:50.114Z,961.32
2022-10-05T04:31:52.283Z,961.29
2022-10-05T04:32:54.107Z,961.33
2022-10-05T04:33:56.111Z,961.32
2022-10-05T04:34:58.139Z,961.28
2022-10-05T04:36:01.196Z,961.29
2022-10-05T04:37:02.103Z,961.31
2022-10-05T04:38:04.115Z,961.33
2022-10-05T04:39:06.112Z,961.33
2022-10-05T04:40:08.112Z,961.37
2022-10-05T04:41:10.120Z,961.33
2022-10-05T04:42:12.122Z,961.35
2022-10-05T04:43:14.120Z,961.36
2022-10-05T04:44:16.122Z,961.39
2022-10-05T04:45:18.117Z,961.38
2022-10-05T04:46:20.227Z,961.38
2022-10-05T04:47:22.129Z,961.38
2022-10-05T04:48:24.125Z,961.42
2022-10-05T04:49:26.141Z,961.47
2022-10-05T04:50:28.129Z,961.48
2022-10-05T04:51:30.127Z,961.49
2022-10-05T04:52:32.122Z,961.48
2022-10-05T04:53:34.169Z,961.48
2022-10-05T04:54:36.131Z,961.48
2022-10-05T04:55:38.123Z,961.49
2022-10-05T04:56:40.131Z,961.49
2022-10-05T04:57:42.152Z,961.47
2022-10-05T04:58:45.125Z,961.46
2022-10-05T04:59:47.130Z,961.46
2022-10-05T05:00:49.163Z,961.48
2022-10-05T05:01:51.127Z,961.46
2022-10-05T05:02:53.134Z,961.47
2022-10-05T05:03:55.280Z,961.5
2022-10-05T05:04:57.161Z,961.47
2022-10-05T05:06:16.286Z,961.48
2022-10-05T05:07:01.150Z,961.5
2022-10-05T05:08:03.137Z,961.48
2022-10-05T05:09:05.135Z,961.44
2022-10-05T05:10:07.282Z,961.45
2022-10-05T05:11:12.456Z,961.45
2022-10-05T05:12:11.139Z,961.39
2022-10-05T05:13:13.142Z,961.38
2022-10-05T05:14:15.140Z,961.38
2022-10-05T05:15:17.276Z,961.38
2022-10-05T05:16:19.230Z,961.39
2022-10-05T05:17:21.175Z,961.44
2022-10-05T05:18:23.172Z,961.47
2022-10-05T05:19:25.154Z,961.46
2022-10-05T05:20:27.942Z,961.44
2022-10-05T05:21:29.149Z,961.47
2022-10-05T05:22:31.147Z,961.48
2022-10-05T05:23:33.167Z,961.53
2022-10-05T05:24:35.148Z,961.57
2022-10-05T05:25:37.180Z,961.59
2022-10-05T05:26:39.247Z,961.6
2022-10-05T05:27:42.148Z,961.58
2022-10-05T05:28:46.144Z,961.56
2022-10-05T05:29:48.605Z,961.59
2022-10-05T05:30:50.148Z,961.55
2022-10-05T05:31:53.161Z,961.58
2022-10-05T05:32:55.156Z,961.59
2022-10-05T05:34:11.913Z,961.57
2022-10-05T05:35:13.841Z,961.57
2022-10-05T05:37:19.662Z,961.56
2022-10-05T05:38:24.558Z,961.57
2022-10-05T05:39:24.616Z,961.55
2022-10-05T05:40:26.631Z,961.57
2022-10-05T05:41:28.613Z,961.61
2022-10-05T05:42:30.663Z,961.65
2022-10-05T05:43:32.619Z,961.65
2022-10-05T05:44:38.542Z,961.7
2022-10-05T05:45:36.621Z,961.74
2022-10-05T05:46:51.569Z,961.76
2022-10-05T05:47:40.699Z,961.76
2022-10-05T05:48:43.832Z,961.77
2022-10-05T05:49:45.641Z,961.82
2022-10-05T05:50:48.707Z,961.77
2022-10-05T05:51:52.011Z,961.76
2022-10-05T05:52:52.634Z,961.77
2022-10-05T05:53:54.632Z,961.77
2022-10-05T05:54:56.842Z,961.79
2022-10-05T05:55:59.295Z,961.85
2022-10-05T05:57:01.895Z,961.85
2022-10-05T05:58:37.315Z,961.86
2022-10-05T05:59:41.739Z,961.83
2022-10-05T06:02:37.006Z,961.8
2022-10-05T06:04:36.925Z,961.75
2022-10-05T06:07:36.930Z,961.73
2022-10-05T06:08:37.325Z,961.69
2022-10-05T06:09:36.905Z,961.71
2022-10-05T06:15:38.984Z,961.67
2022-10-05T06:16:37.089Z,961.7
2022-10-05T06:17:37.681Z,961.74
2022-10-05T06:18:37.805Z,961.72
2022-10-05T06:19:36.896Z,961.73
2022-10-05T06:20:39.820Z,961.75
2022-10-05T06:21:37.535Z,961.72
2022-10-05T06:22:42.971Z,961.74
2022-10-05T06:23:44.039Z,961.75
2022-10-05T06:24:44.531Z,961.75
2022-10-05T06:26:49.831Z,961.75
2022-10-05T06:32:06.243Z,961.74
2022-10-05T06:33:08.128Z,961.75
2022-10-05T06:34:10.140Z,961.74
2022-10-05T06:35:12.133Z,961.71
2022-10-05T06:36:14.825Z,961.72
2022-10-05T06:37:16.156Z,961.74
2022-10-05T06:38:18.157Z,961.75
2022-10-05T06:39:20.133Z,961.72
2022-10-05T06:40:22.144Z,961.74
2022-10-05T06:41:24.125Z,961.72
2022-10-05T06:42:26.159Z,961.74
2022-10-05T06:43:29.149Z,961.74
2022-10-05T06:44:33.143Z,961.74
2022-10-05T06:45:35.205Z,961.71
2022-10-05T06:46:37.609Z,961.69
2022-10-05T06:47:39.150Z,961.68
2022-10-05T06:48:42.126Z,961.71
2022-10-05T06:49:44.213Z,961.71
2022-10-05T06:50:46.143Z,961.72
2022-10-05T06:51:48.147Z,961.72
2022-10-05T06:52:50.151Z,961.73
2022-10-05T06:53:52.167Z,961.76
2022-10-05T06:54:54.145Z,961.77
2022-10-05T06:55:56.139Z,961.81
2022-10-05T06:56:58.152Z,961.78
2022-10-05T06:58:00.158Z,961.77
2022-10-05T06:59:02.146Z,961.76
2022-10-05T07:00:04.148Z,961.76
2022-10-05T07:01:06.189Z,961.81
2022-10-05T07:02:08.247Z,961.79
2022-10-05T07:04:27.580Z,961.77
2022-10-05T07:05:16.876Z,961.76
2022-10-05T07:06:18.480Z,961.75
2022-10-05T07:07:21.525Z,961.74
2022-10-05T07:08:23.266Z,961.74
2022-10-05T07:09:25.321Z,961.71
2022-10-05T07:10:27.259Z,961.71
2022-10-05T07:11:33.373Z,961.71
2022-10-05T07:12:35.286Z,961.69
2022-10-05T07:13:37.540Z,961.68
2022-10-05T07:14:39.393Z,961.67
2022-10-05T07:15:41.231Z,961.67
2022-10-05T07:16:43.301Z,961.67
2022-10-05T07:17:46.238Z,961.65
2022-10-05T07:18:48.173Z,961.62
2022-10-05T07:19:50.188Z,961.59
2022-10-05T07:20:52.168Z,961.55
2022-10-05T07:21:54.487Z,961.55
2022-10-05T07:22:56.180Z,961.53
2022-10-05T07:25:01.164Z,961.5
2022-10-05T07:26:03.732Z,961.46
2022-10-05T07:27:05.197Z,961.46
2022-10-05T07:28:07.267Z,961.47
2022-10-05T07:29:09.179Z,961.46
2022-10-05T07:33:20.234Z,961.38
2022-10-05T07:35:24.541Z,961.35
2022-10-05T07:36:26.346Z,961.35
2022-10-05T07:37:28.270Z,961.33
2022-10-05T07:38:30.608Z,961.34
2022-10-05T07:39:55.295Z,961.34
2022-10-05T07:40:42.713Z,961.33
2022-10-05T07:41:46.653Z,961.35
2022-10-05T07:42:52.331Z,961.33
2022-10-05T07:44:02.071Z,961.34
2022-10-05T07:44:54.052Z,961.34
2022-10-05T07:45:55.813Z,961.36
2022-10-05T07:46:57.678Z,961.36
2022-10-05T07:47:59.643Z,961.39
2022-10-05T07:49:01.640Z,961.37
2022-10-05T07:50:04.597Z,961.39
2022-10-05T07:51:05.618Z,961.36
2022-10-05T07:52:07.685Z,961.37
2022-10-05T07:53:09.603Z,961.42
2022-10-05T07:54:11.666Z,961.41
2022-10-05T07:55:13.620Z,961.42
2022-10-05T07:56:15.639Z,961.45
2022-10-05T07:57:17.678Z,961.42
2022-10-05T07:58:19.655Z,961.44
2022-10-05T07:59:22.640Z,961.41
2022-10-05T08:00:24.644Z,961.42
2022-10-05T08:01:26.685Z,961.41
2022-10-05T08:02:28.733Z,961.43
2022-10-05T08:03:30.608Z,961.38
2022-10-05T08:04:32.655Z,961.37
2022-10-05T08:05:34.617Z,961.42
2022-10-05T08:06:36.685Z,961.35
2022-10-05T08:07:38.633Z,961.4
2022-10-05T08:08:41.677Z,961.43
2022-10-05T08:09:43.733Z,961.42
2022-10-05T08:10:46.738Z,961.42
2022-10-05T08:11:49.782Z,961.45
2022-10-05T08:12:52.609Z,961.41
2022-10-05T08:13:54.609Z,961.42
2022-10-05T08:14:56.650Z,961.42
2022-10-05T08:15:58.676Z,961.42
2022-10-05T08:17:02.714Z,961.41
2022-10-05T08:18:04.130Z,961.38
2022-10-05T08:19:04.999Z,961.41
2022-10-05T08:20:08.024Z,961.37
2022-10-05T08:21:09.659Z,961.4
2022-10-05T08:22:12.748Z,961.4
2022-10-05T08:23:37.006Z,961.35
2022-10-05T08:25:37.076Z,961.34
2022-10-05T08:28:37.112Z,961.35
2022-10-05T08:29:36.991Z,961.35
2022-10-05T08:30:45.531Z,961.35
2022-10-05T08:31:37.077Z,961.37
2022-10-05T08:32:36.997Z,961.32
2022-10-05T08:33:37.029Z,961.3
2022-10-05T08:35:41.865Z,961.28
2022-10-05T08:36:43.824Z,961.3
2022-10-05T08:37:46.835Z,961.28
2022-10-05T08:38:49.829Z,961.3
2022-10-05T08:39:51.865Z,961.29
2022-10-05T08:40:53.860Z,961.23
2022-10-05T08:41:55.856Z,961.29
2022-10-05T08:42:57.827Z,961.26
2022-10-05T08:46:37.092Z,961.23
2022-10-05T08:47:37.014Z,961.23
2022-10-05T08:48:37.013Z,961.24
2022-10-05T08:49:37.011Z,961.25
2022-10-05T08:50:37.006Z,961.25
2022-10-05T08:51:37.048Z,961.23
2022-10-05T08:52:37.073Z,961.26
2022-10-05T08:53:38.875Z,961.24
2022-10-05T08:54:40.869Z,961.21
2022-10-05T08:55:42.913Z,961.2
2022-10-05T08:56:44.913Z,961.18
2022-10-05T08:57:47.872Z,961.18
2022-10-05T08:58:49.883Z,961.17
2022-10-05T08:59:52.864Z,961.2
2022-10-05T09:00:54.870Z,961.19
2022-10-05T09:01:57.167Z,961.17
2022-10-05T09:05:05.488Z,961.15
2022-10-05T09:06:07.487Z,961.15
2022-10-05T09:07:37.102Z,961.16
2022-10-05T09:08:37.025Z,961.15
2022-10-05T09:09:37.029Z,961.14
2022-10-05T09:10:37.021Z,961.14
2022-10-05T09:11:37.019Z,961.12
2022-10-05T09:12:37.033Z,961.08
2022-10-05T09:13:37.028Z,961.06
2022-10-05T09:14:37.028Z,961.07
2022-10-05T09:15:37.066Z,960.97
2022-10-05T09:16:37.027Z,960.94
2022-10-05T09:18:37.141Z,960.93
2022-10-05T09:19:37.036Z,960.88
2022-10-05T09:20:37.034Z,960.89
2022-10-05T09:21:37.735Z,960.87
2022-10-05T09:22:39.729Z,960.89
2022-10-05T09:23:41.918Z,960.9
2022-10-05T09:24:48.244Z,960.89
2022-10-05T09:25:45.734Z,960.86
2022-10-05T09:26:48.736Z,960.89
2022-10-05T09:27:50.731Z,960.89
2022-10-05T09:28:52.916Z,960.89
2022-10-05T09:29:54.725Z,960.91
2022-10-05T09:30:56.798Z,960.86
2022-10-05T09:31:58.741Z,960.9
2022-10-05T09:33:25.352Z,960.86
2022-10-05T09:34:37.077Z,960.85
2022-10-05T09:36:27.981Z,960.79
2022-10-05T09:37:37.129Z,960.81
2022-10-05T09:40:37.769Z,960.75
2022-10-05T09:42:42.738Z,960.69
2022-10-05T09:43:44.749Z,960.68
2022-10-05T09:44:46.741Z,960.71
2022-10-05T09:45:48.782Z,960.71
2022-10-05T09:46:51.744Z,960.68
2022-10-05T09:49:11.289Z,960.69
2022-10-05T09:50:40.680Z,960.62
2022-10-05T09:51:42.857Z,960.63
2022-10-05T09:52:55.228Z,960.62
2022-10-05T09:53:46.853Z,960.6
2022-10-05T09:54:48.857Z,960.61
2022-10-05T09:55:50.893Z,960.56
2022-10-05T09:56:52.859Z,960.6
2022-10-05T09:58:37.060Z,960.53
2022-10-05T09:59:37.108Z,960.55
2022-10-05T10:01:37.164Z,960.58
2022-10-05T10:02:37.197Z,960.57
2022-10-05T10:03:37.062Z,960.57
2022-10-05T10:04:37.066Z,960.57
2022-10-05T10:06:37.102Z,960.52
2022-10-05T10:07:37.066Z,960.53
2022-10-05T10:08:37.080Z,960.51
2022-10-05T10:10:37.117Z,960.5
2022-10-05T10:11:37.059Z,960.49
2022-10-05T10:12:37.095Z,960.48
2022-10-05T10:14:37.076Z,960.47
2022-10-05T10:15:38.011Z,960.48
2022-10-05T10:16:41.924Z,960.47
2022-10-05T10:17:45.919Z,960.43
2022-10-05T10:18:47.933Z,960.41
2022-10-05T10:19:49.966Z,960.4
2022-10-05T10:20:52.924Z,960.37
2022-10-05T10:22:56.930Z,960.35
2022-10-05T10:25:01.948Z,960.36
2022-10-05T10:26:03.964Z,960.36
2022-10-05T10:27:05.939Z,960.32
2022-10-05T10:29:10.940Z,960.36
2022-10-05T10:30:12.938Z,960.35
2022-10-05T10:31:16.981Z,960.42
2022-10-05T10:32:20.970Z,960.38
2022-10-05T10:33:22.934Z,960.39
2022-10-05T10:36:29.941Z,960.38
2022-10-05T10:37:33.962Z,960.36
2022-10-05T10:38:35.941Z,960.36
2022-10-05T10:39:37.970Z,960.34
2022-10-05T10:40:39.943Z,960.36
2022-10-05T10:42:51.650Z,960.35
2022-10-05T10:44:47.940Z,960.29
2022-10-05T10:45:49.947Z,960.29
2022-10-05T10:46:52.373Z,960.28
2022-10-05T10:47:53.952Z,960.3
2022-10-05T10:48:55.954Z,960.29
2022-10-05T10:49:57.948Z,960.32
2022-10-05T10:50:59.955Z,960.32
2022-10-05T10:53:04.041Z,960.35
2022-10-05T10:54:06.045Z,960.36
2022-10-05T10:55:08.052Z,960.35
2022-10-05T10:56:13.793Z,960.38
2022-10-05T10:57:15.726Z,960.34
2022-10-05T10:58:17.819Z,960.31
2022-10-05T10:59:19.729Z,960.29
2022-10-05T11:00:21.785Z,960.27
2022-10-05T11:01:23.831Z,960.25
2022-10-05T11:02:25.836Z,960.28
2022-10-05T11:03:27.764Z,960.23
2022-10-05T11:04:29.730Z,960.24
2022-10-05T11:05:31.737Z,960.23
2022-10-05T11:06:33.727Z,960.2
2022-10-05T11:07:37.113Z,960.17
2022-10-05T11:08:37.816Z,960.13
2022-10-05T11:09:39.739Z,960.16
2022-10-05T11:10:41.731Z,960.13
2022-10-05T11:12:45.729Z,960.11
2022-10-05T11:13:47.782Z,960.11
2022-10-05T11:14:49.763Z,960.09
2022-10-05T11:15:51.889Z,960.11
2022-10-05T11:16:53.944Z,960.08
2022-10-05T11:17:55.744Z,960.08
2022-10-05T11:18:57.833Z,960.04
2022-10-05T11:20:03.950Z,960.01
2022-10-05T11:21:01.733Z,960.01
2022-10-05T11:22:03.747Z,960.02
2022-10-05T11:23:05.741Z,960.01
2022-10-05T11:24:07.778Z,960.01
2022-10-05T11:25:09.753Z,960.02
2022-10-05T11:26:12.778Z,959.98
2022-10-05T11:27:15.789Z,959.96
2022-10-05T11:28:17.773Z,959.99
2022-10-05T11:29:19.789Z,960
2022-10-05T11:30:21.789Z,960.03
2022-10-05T11:31:23.794Z,960.02
2022-10-05T11:32:25.819Z,960.05
2022-10-05T11:33:27.764Z,960
2022-10-05T11:35:33.804Z,959.99
2022-10-05T11:36:35.762Z,959.98
2022-10-05T11:37:37.766Z,959.95
2022-10-05T11:38:39.764Z,959.98
2022-10-05T11:39:42.775Z,959.99
2022-10-05T11:40:44.768Z,959.98
2022-10-05T11:41:47.051Z,959.98
2022-10-05T11:42:48.768Z,959.97
2022-10-05T11:43:50.769Z,959.96
2022-10-05T11:44:52.818Z,959.95
2022-10-05T11:45:54.791Z,959.94
2022-10-05T11:46:57.774Z,959.93
2022-10-05T11:48:01.184Z,959.92
2022-10-05T11:49:36.194Z,959.92
2022-10-05T11:50:24.000Z,959.92
2022-10-05T11:52:27.969Z,959.95
2022-10-05T11:53:29.973Z,959.93
2022-10-05T11:54:38.268Z,959.94
2022-10-05T11:55:33.989Z,959.94
2022-10-05T11:56:35.968Z,959.96
2022-10-05T11:57:39.973Z,959.9
2022-10-05T11:58:41.974Z,959.94
2022-10-05T11:59:44.964Z,959.91
2022-10-05T12:00:47.021Z,959.89
2022-10-05T12:01:48.968Z,959.95
2022-10-05T12:02:51.030Z,959.91
2022-10-05T12:03:53.147Z,959.92
2022-10-05T12:04:54.979Z,959.96
2022-10-05T12:05:56.994Z,959.95
2022-10-05T12:06:58.971Z,959.89
2022-10-05T12:08:01.192Z,959.89
2022-10-05T12:09:02.969Z,959.86
2022-10-05T12:10:05.098Z,959.84
2022-10-05T12:12:10.003Z,959.81
2022-10-05T12:13:11.987Z,959.9
2022-10-05T12:15:15.976Z,959.79
2022-10-05T12:16:18.171Z,959.79
2022-10-05T12:17:22.002Z,959.8
2022-10-05T12:18:46.015Z,959.79
2022-10-05T12:19:26.366Z,959.8
2022-10-05T12:20:37.171Z,959.78
2022-10-05T12:21:37.172Z,959.74
2022-10-05T12:22:37.174Z,959.7
2022-10-05T12:23:37.174Z,959.73
2022-10-05T12:24:37.246Z,959.73
2022-10-05T12:25:38.339Z,959.74
2022-10-05T12:27:42.380Z,959.71
2022-10-05T12:28:44.393Z,959.73
2022-10-05T12:29:47.409Z,959.72
2022-10-05T12:30:50.342Z,959.69
2022-10-05T12:31:52.398Z,959.66
2022-10-05T12:32:59.344Z,959.65
2022-10-05T12:33:56.351Z,959.65
2022-10-05T12:35:01.710Z,959.62
2022-10-05T12:36:01.110Z,959.6
2022-10-05T12:37:37.213Z,959.6
2022-10-05T12:38:37.180Z,959.61
2022-10-05T12:39:37.185Z,959.59
2022-10-05T12:40:37.202Z,959.52
2022-10-05T12:41:37.196Z,959.5
2022-10-05T12:42:41.603Z,959.55
2022-10-05T12:43:37.185Z,959.52
2022-10-05T12:44:37.184Z,959.48
2022-10-05T12:45:37.225Z,959.51
2022-10-05T12:46:37.208Z,959.53
2022-10-05T12:47:37.224Z,959.49
2022-10-05T12:48:37.232Z,959.48
2022-10-05T12:49:37.193Z,959.47
2022-10-05T12:50:37.194Z,959.48
2022-10-05T12:51:37.212Z,959.48
2022-10-05T12:52:37.497Z,959.49
2022-10-05T12:54:41.394Z,959.48
2022-10-05T12:55:43.360Z,959.45
2022-10-05T12:56:45.356Z,959.44
2022-10-05T12:57:47.362Z,959.44
2022-10-05T12:58:49.384Z,959.44
2022-10-05T12:59:51.367Z,959.41
2022-10-05T13:00:53.449Z,959.4
2022-10-05T13:01:55.483Z,959.43
2022-10-05T13:03:59.367Z,959.38
2022-10-05T13:05:01.379Z,959.42
2022-10-05T13:06:16.860Z,959.4
2022-10-05T13:07:18.843Z,959.35
2022-10-05T13:08:20.841Z,959.4
2022-10-05T13:09:23.844Z,959.38
2022-10-05T13:10:25.862Z,959.37
2022-10-05T13:12:30.826Z,959.39
2022-10-05T13:13:32.827Z,959.37
2022-10-05T13:14:34.823Z,959.35
2022-10-05T13:15:36.858Z,959.36
2022-10-05T13:16:38.926Z,959.31
2022-10-05T13:17:40.820Z,959.33
2022-10-05T13:18:42.820Z,959.34
2022-10-05T13:19:44.820Z,959.36
2022-10-05T13:20:46.825Z,959.34
2022-10-05T13:21:48.851Z,959.34
2022-10-05T13:22:52.851Z,959.34
2022-10-05T13:23:57.357Z,959.31
2022-10-05T13:24:56.822Z,959.32
2022-10-05T13:25:58.826Z,959.33
2022-10-05T13:28:02.873Z,959.33
2022-10-05T13:29:04.834Z,959.32
2022-10-05T13:30:06.817Z,959.31
2022-10-05T13:31:08.878Z,959.31
2022-10-05T13:32:11.861Z,959.3
2022-10-05T13:33:13.856Z,959.31
2022-10-05T13:35:17.831Z,959.3
2022-10-05T13:36:21.832Z,959.29
2022-10-05T13:37:23.837Z,959.26
2022-10-05T13:38:25.864Z,959.29
2022-10-05T13:39:27.842Z,959.38
2022-10-05T13:40:29.831Z,959.31
2022-10-05T13:41:31.836Z,959.36
2022-10-05T13:42:33.840Z,959.34
2022-10-05T13:44:37.847Z,959.33
2022-10-05T13:45:39.935Z,959.37
2022-10-05T13:46:41.838Z,959.38
2022-10-05T13:47:57.650Z,959.32
2022-10-05T13:49:47.885Z,959.35
2022-10-05T13:50:49.845Z,959.33
2022-10-05T13:51:53.853Z,959.38
2022-10-05T13:52:55.849Z,959.36
2022-10-05T13:53:57.874Z,959.35
2022-10-05T13:55:00.025Z,959.35
2022-10-05T13:56:01.864Z,959.32
2022-10-05T13:57:03.854Z,959.32
2022-10-05T13:58:05.970Z,959.3
2022-10-05T13:59:08.892Z,959.27
2022-10-05T14:00:11.932Z,959.32
2022-10-05T14:01:37.253Z,959.34
2022-10-05T14:02:37.314Z,959.32
2022-10-05T14:03:37.284Z,959.3
2022-10-05T14:04:37.300Z,959.3
2022-10-05T14:05:38.230Z,959.32
2022-10-05T14:06:37.292Z,959.32
2022-10-05T14:07:37.320Z,959.34
2022-10-05T14:09:37.273Z,959.33